createdAt,value
2018-08-16T00:01:12.799Z,69.40
2018-08-16T00:03:45.389Z,70.30
2018-08-16T00:06:17.786Z,71.90
2018-08-16T00:08:50.197Z,71.60
2018-08-16T00:11:22.746Z,71.80
2018-08-16T00:13:55.212Z,72.20
2018-08-16T00:16:30.546Z,72.80
2018-08-16T00:19:02.962Z,73.10
2018-08-16T00:21:35.517Z,73.30
2018-08-16T00:24:07.958Z,74.30
2018-08-16T00:26:41.334Z,74.80
2018-08-16T00:29:13.856Z,75.70
2018-08-16T00:31:47.081Z,75.70
2018-08-16T00:34:19.558Z,76.60
2018-08-16T00:36:52.135Z,77.10
2018-08-16T00:39:24.578Z,77.10
2018-08-16T00:41:57.190Z,77.30
2018-08-16T00:44:29.803Z,77.40
2018-08-16T00:47:02.283Z,77.50
2018-08-16T00:49:34.759Z,77.50
2018-08-16T00:52:11.855Z,77.60
2018-08-16T00:54:46.981Z,78.10
2018-08-16T00:57:19.404Z,78.20
2018-08-16T00:59:52.024Z,78.40
2018-08-16T01:02:26.104Z,78.70
2018-08-16T01:04:58.531Z,79.30
2018-08-16T01:07:31.441Z,79.50
2018-08-16T01:10:04.101Z,79.60
2018-08-16T01:12:37.013Z,80.40
2018-08-16T01:15:12.423Z,80.40
2018-08-16T01:17:44.989Z,80.70
2018-08-16T01:20:17.797Z,81.10
2018-08-16T01:22:50.428Z,81.60
2018-08-16T01:25:23.765Z,82.50
2018-08-16T01:27:56.285Z,82.70
2018-08-16T01:30:28.841Z,84.00
2018-08-16T01:33:01.649Z,84.10
2018-08-16T01:35:34.008Z,85.00
2018-08-16T01:38:06.506Z,85.10
2018-08-16T01:40:38.915Z,85.20
2018-08-16T01:43:12.342Z,85.70
2018-08-16T01:45:45.184Z,86.60
2018-08-16T01:48:17.680Z,87.10
2018-08-16T01:50:50.756Z,88.60
2018-08-16T01:53:23.861Z,88.60
2018-08-16T01:55:56.406Z,87.90
2018-08-16T01:58:30.560Z,88.20
2018-08-16T02:01:02.994Z,88.00
2018-08-16T02:03:35.532Z,88.30
2018-08-16T02:06:08.007Z,88.40
2018-08-16T02:08:41.524Z,88.80
2018-08-16T02:11:15.165Z,88.00
2018-08-16T02:13:49.120Z,88.60
2018-08-16T02:16:21.864Z,89.70
2018-08-16T02:18:56.609Z,89.30
2018-08-16T02:21:31.665Z,89.60
2018-08-16T02:24:06.428Z,89.80
2018-08-16T02:26:39.281Z,90.00
2018-08-16T02:29:11.755Z,90.00
2018-08-16T02:31:44.197Z,90.20
2018-08-16T02:34:20.246Z,90.30
2018-08-16T02:38:22.697Z,90.40
2018-08-16T02:40:55.904Z,90.40
2018-08-16T02:43:30.857Z,90.30
2018-08-16T02:46:04.605Z,90.60
2018-08-16T02:48:38.581Z,90.60
2018-08-16T02:51:11.390Z,90.90
2018-08-16T02:53:44.925Z,90.80
2018-08-16T02:56:17.658Z,91.20
2018-08-16T02:58:51.074Z,91.10
2018-08-16T03:01:25.526Z,90.90
2018-08-16T03:03:58.932Z,90.60
2018-08-16T03:06:33.525Z,90.70
2018-08-16T03:09:09.701Z,90.80
2018-08-16T03:11:42.159Z,91.30
2018-08-16T03:14:15.841Z,91.00
2018-08-16T03:16:48.788Z,90.90
2018-08-16T03:19:22.402Z,90.70
2018-08-16T03:21:54.856Z,90.70
2018-08-16T03:24:27.359Z,90.70
2018-08-16T03:26:59.985Z,90.70
2018-08-16T03:29:32.602Z,91.00
2018-08-16T03:32:11.964Z,90.80
2018-08-16T03:34:48.765Z,91.00
2018-08-16T03:37:21.235Z,91.20
2018-08-16T03:39:53.734Z,91.10
2018-08-16T03:42:28.136Z,91.30
2018-08-16T03:45:00.951Z,91.40
2018-08-16T03:47:34.822Z,91.80
2018-08-16T03:50:08.430Z,91.70
2018-08-16T03:52:40.987Z,91.80
2018-08-16T03:55:13.604Z,92.00
2018-08-16T03:57:46.271Z,92.10
2018-08-16T04:00:18.743Z,92.40
2018-08-16T04:02:51.126Z,92.50
2018-08-16T04:05:23.610Z,92.50
2018-08-16T04:07:56.020Z,92.50
2018-08-16T04:10:28.649Z,92.50
2018-08-16T04:13:02.208Z,92.50
2018-08-16T04:15:34.770Z,92.60
2018-08-16T04:18:07.440Z,92.90
2018-08-16T04:20:46.157Z,92.70
2018-08-16T04:23:23.667Z,92.80
2018-08-16T04:28:40.136Z,92.80
2018-08-16T04:31:14.848Z,92.80
2018-08-16T04:33:53.270Z,93.00
2018-08-16T04:36:41.480Z,93.00
2018-08-16T04:39:21.389Z,93.00
2018-08-16T04:42:13.422Z,93.30
2018-08-16T04:47:42.541Z,93.50
2018-08-16T04:50:24.784Z,93.80
2018-08-16T04:55:41.916Z,93.50
2018-08-16T04:58:15.455Z,93.60
2018-08-16T05:00:47.856Z,93.70
2018-08-16T05:03:20.287Z,93.70
2018-08-16T05:05:56.511Z,93.70
2018-08-16T05:08:38.681Z,93.70
2018-08-16T05:11:19.204Z,93.80
2018-08-16T05:13:54.532Z,94.10
2018-08-16T05:16:28.854Z,93.90
2018-08-16T05:19:01.621Z,93.90
2018-08-16T05:21:36.961Z,94.10
2018-08-16T05:24:12.681Z,94.20
2018-08-16T05:26:59.085Z,94.20
2018-08-16T05:29:31.842Z,94.20
2018-08-16T05:32:04.343Z,94.40
2018-08-16T05:34:37.096Z,94.40
2018-08-16T05:37:09.861Z,94.50
2018-08-16T05:39:42.813Z,94.50
2018-08-16T05:42:16.259Z,94.50
2018-08-16T05:44:49.197Z,94.60
2018-08-16T05:47:21.730Z,94.40
2018-08-16T05:49:54.320Z,94.40
2018-08-16T05:52:26.737Z,94.30
2018-08-16T05:54:59.661Z,94.20
2018-08-16T05:57:33.053Z,94.10
2018-08-16T06:00:05.784Z,94.20
2018-08-16T06:02:38.172Z,94.20
2018-08-16T06:05:16.699Z,94.40
2018-08-16T06:07:50.273Z,94.60
2018-08-16T06:10:22.696Z,94.90
2018-08-16T06:12:55.645Z,94.70
2018-08-16T06:15:28.544Z,94.60
2018-08-16T06:18:01.135Z,94.50
2018-08-16T06:20:34.569Z,94.60
2018-08-16T06:23:07.219Z,94.50
2018-08-16T06:25:40.136Z,94.50
2018-08-16T06:28:13.034Z,94.60
2018-08-16T06:30:50.142Z,95.10
2018-08-16T06:33:25.831Z,94.80
2018-08-16T06:38:53.035Z,95.00
2018-08-16T06:41:27.723Z,95.20
2018-08-16T06:44:01.133Z,95.20
2018-08-16T06:46:33.805Z,95.20
2018-08-16T06:49:06.856Z,95.40
2018-08-16T06:51:39.952Z,95.50
2018-08-16T06:54:21.528Z,95.50
2018-08-16T06:57:06.828Z,95.80
2018-08-16T06:59:42.376Z,95.80
2018-08-16T07:02:14.823Z,95.80
2018-08-16T07:04:50.800Z,95.90
2018-08-16T07:07:23.650Z,96.00
2018-08-16T07:09:56.278Z,96.10
2018-08-16T07:12:28.856Z,96.50
2018-08-16T07:15:01.512Z,96.60
2018-08-16T07:17:34.073Z,96.60
2018-08-16T07:20:11.338Z,96.70
2018-08-16T07:22:45.519Z,96.80
2018-08-16T07:25:18.349Z,96.80
2018-08-16T07:28:02.007Z,96.90
2018-08-16T07:30:46.755Z,96.90
2018-08-16T07:46:34.175Z,97.10
2018-08-16T07:51:53.513Z,97.70
2018-08-16T08:00:07.508Z,97.90
2018-08-16T08:02:48.962Z,98.00
2018-08-16T08:10:59.635Z,98.50
2018-08-16T08:13:45.395Z,98.60
2018-08-16T08:16:41.918Z,98.80
2018-08-16T08:22:09.672Z,99.00
2018-08-16T08:24:45.117Z,99.10
2018-08-16T08:27:19.186Z,99.20
2018-08-16T08:29:52.313Z,99.10
2018-08-16T08:32:25.429Z,99.40
2018-08-16T08:34:58.536Z,99.30
2018-08-16T08:37:40.933Z,99.50
2018-08-16T08:40:13.920Z,99.60
2018-08-16T08:42:48.308Z,99.70
2018-08-16T08:45:21.785Z,99.60
2018-08-16T08:47:57.681Z,99.90
2018-08-16T08:50:30.927Z,99.90
2018-08-16T08:54:13.977Z,99.90
2018-08-16T08:56:56.430Z,99.90
2018-08-16T08:59:29.846Z,99.90
2018-08-16T09:02:02.956Z,99.90
2018-08-16T09:04:38.537Z,99.90
2018-08-16T09:07:13.154Z,99.90
2018-08-16T09:09:58.065Z,99.90
2018-08-16T09:12:42.866Z,99.90
2018-08-16T09:15:59.980Z,99.90
2018-08-16T09:18:34.710Z,99.90
2018-08-16T09:21:14.323Z,99.90
2018-08-16T09:23:48.595Z,99.90
2018-08-16T09:26:25.712Z,99.90
2018-08-16T09:28:59.136Z,99.90
2018-08-16T09:31:41.444Z,99.90
2018-08-16T09:34:24.749Z,99.90
2018-08-16T09:36:57.846Z,99.90
2018-08-16T09:39:33.139Z,99.90
2018-08-16T09:42:06.167Z,99.90
2018-08-16T09:44:39.297Z,99.90
2018-08-16T09:47:21.808Z,99.90
2018-08-16T09:49:54.971Z,99.90
2018-08-16T09:52:28.354Z,99.90
2018-08-16T09:55:01.399Z,99.90
2018-08-16T09:57:35.313Z,99.90
2018-08-16T10:00:14.398Z,99.90
2018-08-16T10:02:48.747Z,99.90
2018-08-16T10:05:21.862Z,99.90
2018-08-16T10:07:54.714Z,99.90
2018-08-16T10:10:27.796Z,99.90
2018-08-16T10:13:01.719Z,99.90
2018-08-16T10:15:34.697Z,99.90
2018-08-16T10:18:08.074Z,99.90
2018-08-16T10:20:41.190Z,99.90
2018-08-16T10:23:15.506Z,99.90
2018-08-16T10:25:48.725Z,99.90
2018-08-16T10:28:26.226Z,99.90
2018-08-16T10:31:00.008Z,99.90
2018-08-16T10:33:33.733Z,99.90
2018-08-16T10:36:07.775Z,99.90
2018-08-16T10:38:41.370Z,99.90
2018-08-16T10:41:16.085Z,99.90
2018-08-16T10:43:48.909Z,99.90
2018-08-16T10:46:21.818Z,99.90
2018-08-16T10:48:54.842Z,99.90
2018-08-16T10:51:27.984Z,99.90
2018-08-16T10:54:01.121Z,99.80
2018-08-16T10:56:34.465Z,99.70
2018-08-16T10:59:09.971Z,99.70
2018-08-16T11:01:43.254Z,99.70
2018-08-16T11:04:17.530Z,99.80
2018-08-16T11:06:50.466Z,99.70
2018-08-16T11:09:23.726Z,99.60
2018-08-16T11:11:56.764Z,99.60
2018-08-16T11:14:30.046Z,99.60
2018-08-16T11:17:03.085Z,99.50
2018-08-16T11:19:36.549Z,99.40
2018-08-16T11:22:09.736Z,99.30
2018-08-16T11:24:42.805Z,99.30
2018-08-16T11:27:16.008Z,99.20
2018-08-16T11:29:49.494Z,99.20
2018-08-16T11:32:22.478Z,99.10
2018-08-16T11:34:55.721Z,99.10
2018-08-16T11:37:29.462Z,99.10
2018-08-16T11:40:02.731Z,99.10
2018-08-16T11:42:35.667Z,99.10
2018-08-16T11:45:19.087Z,99.10
2018-08-16T11:47:52.343Z,99.10
2018-08-16T11:50:25.377Z,99.10
2018-08-16T11:52:58.765Z,99.10
2018-08-16T11:55:31.779Z,99.10
2018-08-16T11:58:05.328Z,99.10
2018-08-16T12:00:39.550Z,99.10
2018-08-16T12:03:12.763Z,99.10
2018-08-16T12:05:46.473Z,98.80
2018-08-16T12:08:19.386Z,98.90
2018-08-16T12:10:52.684Z,98.80
2018-08-16T12:13:25.800Z,98.70
2018-08-16T12:16:00.153Z,98.60
2018-08-16T12:18:33.254Z,98.50
2018-08-16T12:21:06.346Z,98.50
2018-08-16T12:23:39.393Z,98.40
2018-08-16T12:26:19.597Z,98.30
2018-08-16T12:28:52.839Z,98.00
2018-08-16T12:31:25.934Z,97.80
2018-08-16T12:33:59.096Z,97.50
2018-08-16T12:36:32.638Z,97.40
2018-08-16T12:39:06.818Z,97.30
2018-08-16T12:41:39.929Z,97.00
2018-08-16T12:44:13.965Z,96.90
2018-08-16T12:46:47.186Z,96.70
2018-08-16T12:49:20.171Z,96.80
2018-08-16T12:51:53.230Z,96.80
2018-08-16T12:54:26.462Z,96.40
2018-08-16T12:57:11.214Z,96.20
2018-08-16T12:59:50.257Z,95.90
2018-08-16T13:02:23.649Z,95.70
2018-08-16T13:04:56.712Z,95.50
2018-08-16T13:07:29.776Z,95.40
2018-08-16T13:10:02.468Z,95.20
2018-08-16T13:12:36.068Z,95.10
2018-08-16T13:15:09.997Z,94.90
2018-08-16T13:17:49.148Z,94.60
2018-08-16T13:20:22.119Z,94.50
2018-08-16T13:22:55.158Z,94.00
2018-08-16T13:25:29.325Z,93.20
2018-08-16T13:28:02.437Z,93.10
2018-08-16T13:30:35.474Z,93.00
2018-08-16T13:33:08.391Z,93.00
2018-08-16T13:35:41.226Z,92.90
2018-08-16T13:38:14.190Z,92.90
2018-08-16T13:40:47.556Z,92.60
2018-08-16T13:43:20.688Z,92.30
2018-08-16T13:45:53.845Z,92.00
2018-08-16T13:48:27.142Z,91.80
2018-08-16T13:51:00.174Z,91.80
2018-08-16T13:53:37.625Z,91.20
2018-08-16T13:56:14.964Z,90.70
2018-08-16T13:58:48.160Z,91.10
2018-08-16T14:01:21.859Z,91.30
2018-08-16T14:03:54.798Z,91.30
2018-08-16T14:06:28.025Z,91.50
2018-08-16T14:09:00.766Z,91.40
2018-08-16T14:11:33.668Z,91.10
2018-08-16T14:14:06.578Z,91.10
2018-08-16T14:16:39.522Z,91.10
2018-08-16T14:19:12.330Z,90.90
2018-08-16T14:21:45.198Z,90.50
2018-08-16T14:24:18.041Z,90.00
2018-08-16T14:26:51.433Z,88.80
2018-08-16T14:29:24.177Z,87.40
2018-08-16T14:31:57.081Z,87.80
2018-08-16T14:34:30.159Z,87.00
2018-08-16T14:37:03.009Z,87.10
2018-08-16T14:39:35.769Z,85.80
2018-08-16T14:42:08.511Z,84.10
2018-08-16T14:44:41.234Z,84.70
2018-08-16T14:47:14.467Z,83.60
2018-08-16T14:49:47.258Z,82.50
2018-08-16T14:52:20.471Z,83.20
2018-08-16T14:54:54.430Z,83.60
2018-08-16T14:57:27.761Z,81.30
2018-08-16T15:00:02.081Z,80.60
2018-08-16T15:02:35.011Z,81.10
2018-08-16T15:05:08.692Z,81.60
2018-08-16T15:07:41.659Z,80.90
2018-08-16T15:10:14.306Z,80.70
2018-08-16T15:12:47.718Z,79.50
2018-08-16T15:15:21.530Z,79.90
2018-08-16T15:19:31.685Z,79.90
2018-08-16T15:22:04.859Z,79.80
2018-08-16T15:24:37.978Z,78.10
2018-08-16T15:27:13.186Z,79.00
2018-08-16T15:29:47.433Z,78.60
2018-08-16T15:32:20.381Z,77.90
2018-08-16T15:34:53.385Z,78.60
2018-08-16T15:37:26.870Z,77.90
2018-08-16T15:40:00.422Z,77.70
2018-08-16T15:42:33.197Z,77.70
2018-08-16T15:45:05.932Z,77.10
2018-08-16T15:47:39.180Z,77.50
2018-08-16T15:50:12.017Z,77.50
2018-08-16T15:52:44.847Z,77.10
2018-08-16T15:55:17.790Z,76.40
2018-08-16T15:57:50.734Z,74.10
2018-08-16T16:00:24.320Z,74.00
2018-08-16T16:02:57.709Z,74.80
2018-08-16T16:05:30.761Z,74.20
2018-08-16T16:08:04.077Z,75.60
2018-08-16T16:10:38.121Z,75.80
2018-08-16T16:13:12.969Z,75.00
2018-08-16T16:15:45.853Z,75.10
2018-08-16T16:18:18.556Z,75.10
2018-08-16T16:20:51.383Z,75.70
2018-08-16T16:23:24.037Z,75.50
2018-08-16T16:25:57.073Z,74.80
2018-08-16T16:28:30.187Z,74.20
2018-08-16T16:31:04.438Z,73.00
2018-08-16T16:33:38.412Z,72.10
2018-08-16T16:36:12.640Z,72.00
2018-08-16T16:38:45.509Z,71.20
2018-08-16T16:41:19.027Z,71.10
2018-08-16T16:43:52.744Z,70.20
2018-08-16T16:46:25.735Z,70.70
2018-08-16T16:48:59.309Z,70.70
2018-08-16T16:51:32.385Z,70.70
2018-08-16T16:54:05.926Z,71.00
2018-08-16T16:56:39.161Z,71.20
2018-08-16T16:59:12.017Z,70.20
2018-08-16T17:01:45.501Z,70.40
2018-08-16T17:04:18.722Z,70.60
2018-08-16T17:06:53.788Z,70.10
2018-08-16T17:09:26.608Z,70.10
2018-08-16T17:12:00.014Z,69.80
2018-08-16T17:14:34.074Z,69.60
2018-08-16T17:17:07.426Z,70.00
2018-08-16T17:19:40.451Z,70.20
2018-08-16T17:22:13.444Z,69.30
2018-08-16T17:24:46.268Z,69.30
2018-08-16T17:27:19.089Z,68.70
2018-08-16T17:29:52.903Z,69.20
2018-08-16T17:32:26.421Z,67.60
2018-08-16T17:34:59.914Z,67.70
2018-08-16T17:37:50.248Z,68.40
2018-08-16T17:40:23.590Z,66.90
2018-08-16T17:42:56.313Z,68.30
2018-08-16T17:45:31.477Z,67.40
2018-08-16T17:48:05.981Z,67.10
2018-08-16T17:50:38.709Z,65.80
2018-08-16T17:53:11.754Z,65.10
2018-08-16T17:55:45.253Z,66.00
2018-08-16T17:58:18.531Z,65.80
2018-08-16T18:00:52.028Z,65.60
2018-08-16T18:03:25.482Z,65.20
2018-08-16T18:05:58.838Z,64.50
2018-08-16T18:08:32.447Z,62.70
2018-08-16T18:11:05.770Z,60.80
2018-08-16T18:13:39.934Z,59.90
2018-08-16T18:16:13.335Z,59.00
2018-08-16T18:18:46.406Z,58.70
2018-08-16T18:28:10.913Z,57.20
2018-08-16T18:30:44.675Z,56.00
2018-08-16T18:33:21.253Z,55.70
2018-08-16T18:35:57.141Z,55.90
2018-08-16T18:38:30.863Z,56.20
2018-08-16T18:41:04.448Z,56.50
2018-08-16T18:43:41.216Z,57.30
2018-08-16T18:46:14.312Z,57.00
2018-08-16T18:48:47.503Z,57.20
2018-08-16T18:51:23.285Z,56.20
2018-08-16T18:53:56.181Z,56.60
2018-08-16T18:56:32.431Z,56.60
2018-08-16T18:59:05.919Z,56.70
2018-08-16T19:01:39.276Z,57.10
2018-08-16T19:04:12.329Z,57.20
2018-08-16T19:06:45.692Z,56.70
2018-08-16T19:09:18.589Z,56.40
2018-08-16T19:11:51.590Z,55.90
2018-08-16T19:14:41.407Z,55.10
2018-08-16T19:17:14.228Z,54.20
2018-08-16T19:19:47.114Z,53.80
2018-08-16T19:22:19.890Z,53.60
2018-08-16T19:24:54.089Z,53.70
2018-08-16T19:27:26.881Z,54.00
2018-08-16T19:30:00.761Z,54.50
2018-08-16T19:32:33.589Z,55.20
2018-08-16T19:35:06.549Z,55.70
2018-08-16T19:37:40.455Z,56.00
2018-08-16T19:40:13.209Z,55.70
2018-08-16T19:42:47.000Z,56.60
2018-08-16T19:45:19.847Z,56.50
2018-08-16T19:47:54.623Z,56.60
2018-08-16T19:50:30.425Z,56.70
2018-08-16T19:53:03.521Z,56.30
2018-08-16T19:55:36.437Z,55.70
2018-08-16T19:58:09.231Z,56.70
2018-08-16T20:00:43.138Z,56.90
2018-08-16T20:03:15.993Z,57.80
2018-08-16T20:05:49.192Z,59.10
2018-08-16T20:08:21.824Z,60.00
2018-08-16T20:10:54.961Z,60.70
2018-08-16T20:13:28.108Z,61.90
2018-08-16T20:16:01.269Z,62.60
2018-08-16T20:18:34.556Z,62.00
2018-08-16T20:21:07.402Z,62.30
2018-08-16T20:23:40.173Z,62.60
2018-08-16T20:26:13.969Z,63.20
2018-08-16T20:28:47.056Z,64.20
2018-08-16T20:31:20.000Z,64.80
2018-08-16T20:33:53.912Z,65.20
2018-08-16T20:36:26.869Z,65.10
2018-08-16T20:39:00.040Z,64.90
2018-08-16T20:41:33.298Z,65.00
2018-08-16T20:44:06.952Z,65.60
2018-08-16T20:46:39.871Z,65.80
2018-08-16T20:49:13.014Z,65.60
2018-08-16T20:51:45.912Z,65.70
2018-08-16T20:54:19.697Z,66.40
2018-08-16T20:56:54.444Z,66.80
2018-08-16T20:59:27.281Z,65.30
2018-08-16T21:02:00.373Z,65.50
2018-08-16T21:04:34.450Z,66.30
2018-08-16T21:07:08.649Z,66.70
2018-08-16T21:09:41.353Z,65.40
2018-08-16T21:12:14.909Z,66.60
2018-08-16T21:14:47.855Z,67.40
2018-08-16T21:17:21.041Z,69.30
2018-08-16T21:19:53.783Z,68.40
2018-08-16T21:22:30.381Z,68.70
2018-08-16T21:25:03.325Z,66.70
2018-08-16T21:27:36.292Z,67.20
2018-08-16T21:30:11.106Z,68.20
2018-08-16T21:32:44.015Z,69.50
2018-08-16T21:35:19.370Z,70.30
2018-08-16T21:37:52.628Z,69.90
2018-08-16T21:40:27.155Z,69.90
2018-08-16T21:43:02.990Z,67.80
2018-08-16T21:45:36.049Z,67.60
2018-08-16T21:48:08.827Z,67.10
2018-08-16T21:50:41.974Z,67.10
2018-08-16T21:53:14.926Z,67.60
2018-08-16T21:55:47.696Z,67.50
2018-08-16T21:58:20.455Z,67.90
2018-08-16T22:00:56.379Z,67.20
2018-08-16T22:03:30.165Z,67.40
2018-08-16T22:06:05.072Z,67.10
2018-08-16T22:08:50.828Z,67.20
2018-08-16T22:11:25.136Z,68.30
2018-08-16T22:13:57.776Z,68.50
2018-08-16T22:16:30.528Z,69.00
2018-08-16T22:19:03.850Z,69.30
2018-08-16T22:21:37.700Z,69.50
2018-08-16T22:24:10.509Z,69.40
2018-08-16T22:26:43.386Z,69.50
2018-08-16T22:29:16.982Z,70.40
2018-08-16T22:31:49.821Z,70.30
2018-08-16T22:34:22.669Z,70.00
2018-08-16T22:36:55.396Z,69.80
2018-08-16T22:39:28.233Z,69.60
2018-08-16T22:42:01.139Z,69.40
2018-08-16T22:44:33.806Z,69.80
2018-08-16T22:47:06.774Z,69.20
2018-08-16T22:49:39.801Z,69.20
2018-08-16T22:52:12.744Z,69.70
2018-08-16T22:54:46.274Z,69.80
2018-08-16T22:57:19.365Z,69.80
2018-08-16T22:59:52.513Z,69.90
2018-08-16T23:02:25.403Z,70.60
2018-08-16T23:04:58.511Z,70.90
2018-08-16T23:07:31.228Z,71.30
2018-08-16T23:10:04.971Z,72.20
2018-08-16T23:12:37.902Z,72.60
2018-08-16T23:15:11.217Z,73.10
2018-08-16T23:17:44.006Z,73.50
2018-08-16T23:20:17.097Z,74.10
2018-08-16T23:22:50.048Z,73.90
2018-08-16T23:25:22.896Z,74.00
2018-08-16T23:27:57.317Z,74.10
2018-08-16T23:30:33.530Z,74.60
2018-08-16T23:33:06.414Z,75.10
2018-08-16T23:35:40.096Z,75.50
2018-08-16T23:38:13.205Z,76.10
2018-08-16T23:40:47.532Z,76.70
2018-08-16T23:43:20.857Z,77.50
2018-08-16T23:45:55.348Z,77.60
2018-08-16T23:48:33.964Z,77.80
2018-08-16T23:51:07.950Z,78.40
2018-08-16T23:53:41.399Z,78.50
2018-08-16T23:56:15.038Z,79.00
2018-08-16T23:58:47.887Z,79.30
